WAT3980 LIML-EDDF
Flight info
| Callsign | WAT3980 |
|---|---|
| Flight time | 1h 2m |
| Altitude | 18000 |
| Route | PEPAG N851 ABESI/N0447F300 N851 UTAVO DCT ROLSA DCT LADOL T163 EMPAX EMPAX5C |
| Aircraft | A321/M-SDE3FGHIRWY/LB1 |
Departure
| Time | 2026-04-15 09:58 |
|---|---|
| Airport | Milano Linate Airport (LIML) |
Arrival
| Time | 2026-04-15 11:01 |
|---|---|
| Airport | Frankfurt Main Airport (EDDF) |
| Time | Latitude | Longitude | Altitude | Speed | Heading |
|---|---|---|---|---|---|
| 2026-04-15 09:37 | 45.45972 | 9.28030 | 360 ft | 0 kts | 360° |
| 2026-04-15 09:48 | 45.45955 | 9.28030 | 361 ft | 4 kts | 360° |
| 2026-04-15 09:49 | 45.45929 | 9.28031 | 362 ft | 4 kts | 9° |
| 2026-04-15 09:49 | 45.45910 | 9.28014 | 366 ft | 4 kts | 71° |
| 2026-04-15 09:49 | 45.45906 | 9.27981 | 365 ft | 1 kts | 90° |
| 2026-04-15 09:49 | 45.45907 | 9.27947 | 362 ft | 4 kts | 90° |
| 2026-04-15 09:50 | 45.45907 | 9.27936 | 365 ft | 0 kts | 90° |
| 2026-04-15 09:52 | 45.45907 | 9.27951 | 362 ft | 2 kts | 90° |
| 2026-04-15 09:52 | 45.45898 | 9.27977 | 363 ft | 4 kts | 133° |
| 2026-04-15 09:52 | 45.45855 | 9.27986 | 360 ft | 9 kts | 184° |
| 2026-04-15 09:52 | 45.45770 | 9.27983 | 362 ft | 15 kts | 180° |
| 2026-04-15 09:53 | 45.45660 | 9.27981 | 360 ft | 16 kts | 181° |
| 2026-04-15 09:53 | 45.45541 | 9.27979 | 360 ft | 18 kts | 180° |
| 2026-04-15 09:53 | 45.45411 | 9.27978 | 360 ft | 19 kts | 180° |
| 2026-04-15 09:53 | 45.45286 | 9.27907 | 362 ft | 20 kts | 205° |
| 2026-04-15 09:54 | 45.45147 | 9.27873 | 360 ft | 21 kts | 175° |
| 2026-04-15 09:54 | 45.44998 | 9.27889 | 360 ft | 22 kts | 175° |
| 2026-04-15 09:54 | 45.44844 | 9.27939 | 364 ft | 23 kts | 172° |
| 2026-04-15 09:54 | 45.44681 | 9.27957 | 360 ft | 24 kts | 176° |
| 2026-04-15 09:55 | 45.44511 | 9.27976 | 360 ft | 25 kts | 175° |
| 2026-04-15 09:55 | 45.44334 | 9.27995 | 363 ft | 26 kts | 175° |
| 2026-04-15 09:55 | 45.44151 | 9.28014 | 360 ft | 27 kts | 175° |
| 2026-04-15 09:55 | 45.43962 | 9.28035 | 364 ft | 28 kts | 176° |
| 2026-04-15 09:56 | 45.43767 | 9.28056 | 362 ft | 28 kts | 175° |
| 2026-04-15 09:56 | 45.43584 | 9.28077 | 363 ft | 19 kts | 175° |
| 2026-04-15 09:56 | 45.43443 | 9.27975 | 361 ft | 14 kts | 265° |
| 2026-04-15 09:57 | 45.43438 | 9.27860 | 368 ft | 9 kts | 266° |
| 2026-04-15 09:57 | 45.43462 | 9.27817 | 364 ft | 6 kts | 354° |
| 2026-04-15 09:57 | 45.43568 | 9.27807 | 367 ft | 38 kts | 356° |
| 2026-04-15 09:57 | 45.44099 | 9.27748 | 359 ft | 113 kts | 355° |
| 2026-04-15 09:58 | 45.45091 | 9.27647 | 449 ft | 162 kts | 356° |
| 2026-04-15 09:58 | 45.46192 | 9.27542 | 1275 ft | 157 kts | 354° |
| 2026-04-15 09:58 | 45.47275 | 9.27405 | 2088 ft | 154 kts | 353° |
| 2026-04-15 09:58 | 45.48325 | 9.27265 | 2721 ft | 151 kts | 353° |
| 2026-04-15 09:59 | 45.49369 | 9.27139 | 3348 ft | 150 kts | 354° |
| 2026-04-15 09:59 | 45.50440 | 9.27018 | 3830 ft | 163 kts | 353° |
| 2026-04-15 09:59 | 45.51650 | 9.26882 | 4135 ft | 185 kts | 354° |
| 2026-04-15 09:59 | 45.53010 | 9.26730 | 4423 ft | 206 kts | 355° |
| 2026-04-15 10:00 | 45.54515 | 9.26559 | 4674 ft | 229 kts | 355° |
| 2026-04-15 10:00 | 45.56176 | 9.26372 | 5086 ft | 246 kts | 355° |
| 2026-04-15 10:00 | 45.57891 | 9.26180 | 5889 ft | 249 kts | 357° |
| 2026-04-15 10:00 | 45.59650 | 9.25981 | 6504 ft | 262 kts | 357° |
| 2026-04-15 10:01 | 45.61514 | 9.25734 | 7011 ft | 275 kts | 351° |
| 2026-04-15 10:01 | 45.63384 | 9.25027 | 7706 ft | 280 kts | 344° |
| 2026-04-15 10:01 | 45.65240 | 9.24219 | 8466 ft | 283 kts | 344° |
| 2026-04-15 10:01 | 45.67136 | 9.23396 | 9241 ft | 286 kts | 344° |
| 2026-04-15 10:02 | 45.69077 | 9.22699 | 9999 ft | 289 kts | 353° |
| 2026-04-15 10:02 | 45.71081 | 9.22340 | 10696 ft | 292 kts | 354° |
| 2026-04-15 10:02 | 45.73103 | 9.21983 | 11400 ft | 294 kts | 354° |
| 2026-04-15 10:02 | 45.74454 | 9.21745 | 11880 ft | 296 kts | 354° |
| 2026-04-15 10:03 | 45.76508 | 9.21382 | 12595 ft | 298 kts | 354° |
| 2026-04-15 10:03 | 45.78581 | 9.21013 | 13306 ft | 301 kts | 354° |
| 2026-04-15 10:03 | 45.80672 | 9.20640 | 14005 ft | 304 kts | 354° |
| 2026-04-15 10:03 | 45.82780 | 9.20261 | 14618 ft | 307 kts | 353° |
| 2026-04-15 10:04 | 45.84867 | 9.19562 | 15220 ft | 310 kts | 340° |
| 2026-04-15 10:04 | 45.86847 | 9.18166 | 15501 ft | 327 kts | 328° |
| 2026-04-15 10:04 | 45.88794 | 9.16311 | 15623 ft | 346 kts | 327° |
| 2026-04-15 10:04 | 45.90854 | 9.14342 | 15765 ft | 364 kts | 327° |
| 2026-04-15 10:05 | 45.92997 | 9.12298 | 16055 ft | 375 kts | 327° |
| 2026-04-15 10:05 | 45.95185 | 9.10210 | 16586 ft | 379 kts | 327° |
| 2026-04-15 10:05 | 45.97437 | 9.08292 | 17162 ft | 381 kts | 335° |
| 2026-04-15 10:05 | 45.99938 | 9.07023 | 17739 ft | 383 kts | 347° |
| 2026-04-15 10:06 | 46.02574 | 9.06451 | 18302 ft | 385 kts | 354° |
| 2026-04-15 10:06 | 46.05251 | 9.06029 | 18811 ft | 386 kts | 354° |
| 2026-04-15 10:06 | 46.07925 | 9.05605 | 19270 ft | 388 kts | 354° |
| 2026-04-15 10:06 | 46.10581 | 9.05180 | 19764 ft | 390 kts | 354° |
| 2026-04-15 10:07 | 46.13284 | 9.04740 | 20260 ft | 391 kts | 354° |
| 2026-04-15 10:07 | 46.15997 | 9.04293 | 20748 ft | 393 kts | 354° |
| 2026-04-15 10:07 | 46.18718 | 9.03872 | 21202 ft | 395 kts | 355° |
| 2026-04-15 10:07 | 46.21459 | 9.03491 | 21674 ft | 396 kts | 356° |
| 2026-04-15 10:08 | 46.24210 | 9.03135 | 22155 ft | 398 kts | 356° |
| 2026-04-15 10:08 | 46.26975 | 9.02789 | 22607 ft | 400 kts | 356° |
| 2026-04-15 10:08 | 46.29765 | 9.02436 | 23023 ft | 403 kts | 356° |
| 2026-04-15 10:08 | 46.32552 | 9.02071 | 23468 ft | 404 kts | 356° |
| 2026-04-15 10:09 | 46.35363 | 9.01693 | 23889 ft | 406 kts | 356° |
| 2026-04-15 10:09 | 46.38179 | 9.01307 | 24304 ft | 407 kts | 356° |
| 2026-04-15 10:09 | 46.41002 | 9.00920 | 24725 ft | 408 kts | 356° |
| 2026-04-15 10:09 | 46.43826 | 9.00539 | 25144 ft | 408 kts | 356° |
| 2026-04-15 10:10 | 46.46661 | 9.00159 | 25540 ft | 409 kts | 356° |
| 2026-04-15 10:10 | 46.49496 | 8.99778 | 25952 ft | 410 kts | 356° |
| 2026-04-15 10:10 | 46.52342 | 8.99396 | 26341 ft | 411 kts | 356° |
| 2026-04-15 10:10 | 46.55193 | 8.99012 | 26717 ft | 411 kts | 356° |
| 2026-04-15 10:11 | 46.58048 | 8.98625 | 27108 ft | 413 kts | 356° |
| 2026-04-15 10:11 | 46.60902 | 8.98241 | 27483 ft | 413 kts | 356° |
| 2026-04-15 10:11 | 46.63777 | 8.97855 | 27826 ft | 415 kts | 356° |
| 2026-04-15 10:11 | 46.66651 | 8.97469 | 28213 ft | 416 kts | 356° |
| 2026-04-15 10:12 | 46.69542 | 8.97076 | 28612 ft | 417 kts | 356° |
| 2026-04-15 10:12 | 46.72433 | 8.96681 | 28937 ft | 418 kts | 356° |
| 2026-04-15 10:12 | 46.75335 | 8.96286 | 29228 ft | 419 kts | 356° |
| 2026-04-15 10:12 | 46.78202 | 8.95895 | 29525 ft | 419 kts | 356° |
| 2026-04-15 10:13 | 46.81110 | 8.95500 | 29800 ft | 420 kts | 356° |
| 2026-04-15 10:13 | 46.84017 | 8.95104 | 30113 ft | 419 kts | 356° |
| 2026-04-15 10:13 | 46.86893 | 8.94709 | 30177 ft | 410 kts | 356° |
| 2026-04-15 10:14 | 46.92530 | 8.93930 | 30175 ft | 403 kts | 356° |
| 2026-04-15 10:14 | 46.98105 | 8.93167 | 30192 ft | 401 kts | 356° |
| 2026-04-15 10:15 | 47.03662 | 8.92412 | 30186 ft | 401 kts | 356° |
| 2026-04-15 10:15 | 47.09226 | 8.91647 | 30198 ft | 402 kts | 356° |
| 2026-04-15 10:16 | 47.14793 | 8.90875 | 30221 ft | 402 kts | 356° |
| 2026-04-15 10:16 | 47.20299 | 8.90113 | 30225 ft | 402 kts | 356° |
| 2026-04-15 10:17 | 47.25890 | 8.89334 | 30245 ft | 402 kts | 356° |
| 2026-04-15 10:17 | 47.31462 | 8.89083 | 30244 ft | 401 kts | 4° |
| 2026-04-15 10:18 | 47.37061 | 8.89507 | 30245 ft | 402 kts | 3° |
| 2026-04-15 10:18 | 47.42610 | 8.89906 | 30242 ft | 401 kts | 3° |
| 2026-04-15 10:19 | 47.48186 | 8.90304 | 30241 ft | 402 kts | 3° |
| 2026-04-15 10:19 | 47.53769 | 8.90705 | 30235 ft | 402 kts | 3° |
| 2026-04-15 10:20 | 47.59369 | 8.91107 | 30232 ft | 402 kts | 3° |
| 2026-04-15 10:20 | 47.64954 | 8.91516 | 30230 ft | 402 kts | 3° |
| 2026-04-15 10:21 | 47.70545 | 8.91926 | 30229 ft | 402 kts | 3° |
| 2026-04-15 10:21 | 47.76142 | 8.92338 | 30223 ft | 403 kts | 3° |
| 2026-04-15 10:22 | 47.81737 | 8.92744 | 30223 ft | 403 kts | 3° |
| 2026-04-15 10:22 | 47.87335 | 8.93154 | 30223 ft | 403 kts | 3° |
| 2026-04-15 10:23 | 47.92941 | 8.93568 | 30226 ft | 403 kts | 3° |
| 2026-04-15 10:23 | 47.98544 | 8.93987 | 30202 ft | 403 kts | 3° |
| 2026-04-15 10:24 | 48.04152 | 8.94404 | 30205 ft | 404 kts | 2° |
| 2026-04-15 10:24 | 48.09772 | 8.94820 | 30208 ft | 405 kts | 2° |
| 2026-04-15 10:25 | 48.15407 | 8.95235 | 30211 ft | 406 kts | 2° |
| 2026-04-15 10:25 | 48.21041 | 8.95829 | 30214 ft | 406 kts | 5° |
| 2026-04-15 10:26 | 48.26667 | 8.96757 | 30216 ft | 407 kts | 6° |
| 2026-04-15 10:26 | 48.32263 | 8.97695 | 30222 ft | 407 kts | 5° |
| 2026-04-15 10:27 | 48.37901 | 8.98574 | 30221 ft | 407 kts | 5° |
| 2026-04-15 10:27 | 48.43555 | 8.99425 | 30224 ft | 407 kts | 5° |
| 2026-04-15 10:28 | 48.49194 | 9.00270 | 30226 ft | 407 kts | 5° |
| 2026-04-15 10:28 | 48.54827 | 9.01128 | 30227 ft | 408 kts | 5° |
| 2026-04-15 10:28 | 48.57655 | 9.01563 | 29954 ft | 408 kts | 5° |
| 2026-04-15 10:29 | 48.60478 | 9.01999 | 29672 ft | 409 kts | 5° |
| 2026-04-15 10:29 | 48.63319 | 9.02439 | 29376 ft | 410 kts | 5° |
| 2026-04-15 10:29 | 48.66124 | 9.02975 | 28807 ft | 405 kts | 7° |
| 2026-04-15 10:29 | 48.68889 | 9.03622 | 28213 ft | 400 kts | 8° |
| 2026-04-15 10:30 | 48.71622 | 9.04320 | 27613 ft | 396 kts | 9° |
| 2026-04-15 10:30 | 48.74327 | 9.05022 | 27031 ft | 393 kts | 9° |
| 2026-04-15 10:30 | 48.77011 | 9.05708 | 26448 ft | 390 kts | 9° |
| 2026-04-15 10:30 | 48.79667 | 9.06372 | 25847 ft | 389 kts | 8° |
| 2026-04-15 10:31 | 48.82349 | 9.07024 | 25284 ft | 388 kts | 8° |
| 2026-04-15 10:31 | 48.85009 | 9.07664 | 24740 ft | 387 kts | 8° |
| 2026-04-15 10:31 | 48.87631 | 9.08296 | 24204 ft | 386 kts | 8° |
| 2026-04-15 10:31 | 48.90329 | 9.08863 | 23605 ft | 385 kts | 6° |
| 2026-04-15 10:32 | 48.92953 | 9.09276 | 23023 ft | 384 kts | 5° |
| 2026-04-15 10:32 | 48.95608 | 9.09619 | 22485 ft | 382 kts | 4° |
| 2026-04-15 10:32 | 48.98250 | 9.09934 | 21945 ft | 379 kts | 4° |
| 2026-04-15 10:32 | 49.00907 | 9.10262 | 21431 ft | 377 kts | 5° |
| 2026-04-15 10:33 | 49.03509 | 9.10605 | 20924 ft | 374 kts | 5° |
| 2026-04-15 10:33 | 49.06086 | 9.10959 | 20451 ft | 372 kts | 5° |
| 2026-04-15 10:33 | 49.08618 | 9.11312 | 19974 ft | 369 kts | 5° |
| 2026-04-15 10:33 | 49.11171 | 9.11675 | 19508 ft | 367 kts | 5° |
| 2026-04-15 10:34 | 49.13707 | 9.12041 | 19052 ft | 365 kts | 5° |
| 2026-04-15 10:34 | 49.16221 | 9.12405 | 18592 ft | 362 kts | 5° |
| 2026-04-15 10:34 | 49.18727 | 9.12769 | 18085 ft | 361 kts | 5° |
| 2026-04-15 10:34 | 49.21216 | 9.13133 | 17607 ft | 358 kts | 5° |
| 2026-04-15 10:35 | 49.23687 | 9.13492 | 17137 ft | 355 kts | 5° |
| 2026-04-15 10:35 | 49.26156 | 9.13852 | 16655 ft | 364 kts | 5° |
| 2026-04-15 10:35 | 49.28709 | 9.14303 | 16150 ft | 372 kts | 10° |
| 2026-04-15 10:35 | 49.31232 | 9.15172 | 15639 ft | 371 kts | 13° |
| 2026-04-15 10:36 | 49.33743 | 9.16065 | 15131 ft | 370 kts | 12° |
| 2026-04-15 10:36 | 49.36246 | 9.16948 | 14624 ft | 367 kts | 12° |
| 2026-04-15 10:36 | 49.38726 | 9.17825 | 14125 ft | 365 kts | 12° |
| 2026-04-15 10:36 | 49.41198 | 9.18698 | 13582 ft | 364 kts | 12° |
| 2026-04-15 10:37 | 49.43670 | 9.19571 | 13078 ft | 363 kts | 12° |
| 2026-04-15 10:37 | 49.46124 | 9.20442 | 12582 ft | 361 kts | 12° |
| 2026-04-15 10:37 | 49.48561 | 9.21308 | 12085 ft | 359 kts | 12° |
| 2026-04-15 10:37 | 49.50991 | 9.22169 | 11600 ft | 357 kts | 12° |
| 2026-04-15 10:38 | 49.53408 | 9.23029 | 11121 ft | 355 kts | 12° |
| 2026-04-15 10:38 | 49.55789 | 9.23878 | 11012 ft | 346 kts | 12° |
| 2026-04-15 10:38 | 49.58076 | 9.24697 | 10894 ft | 329 kts | 12° |
| 2026-04-15 10:38 | 49.60247 | 9.25480 | 10771 ft | 313 kts | 13° |
| 2026-04-15 10:39 | 49.62323 | 9.26230 | 10638 ft | 300 kts | 12° |
| 2026-04-15 10:39 | 49.64332 | 9.26956 | 10531 ft | 295 kts | 12° |
| 2026-04-15 10:39 | 49.66308 | 9.27664 | 10448 ft | 295 kts | 12° |
| 2026-04-15 10:39 | 49.68311 | 9.28378 | 10332 ft | 295 kts | 12° |
| 2026-04-15 10:40 | 49.70317 | 9.29093 | 10219 ft | 295 kts | 12° |
| 2026-04-15 10:40 | 49.72311 | 9.29807 | 10004 ft | 293 kts | 12° |
| 2026-04-15 10:40 | 49.74288 | 9.30517 | 9591 ft | 291 kts | 12° |
| 2026-04-15 10:40 | 49.76255 | 9.31225 | 9188 ft | 289 kts | 12° |
| 2026-04-15 10:41 | 49.78207 | 9.31931 | 8788 ft | 287 kts | 13° |
| 2026-04-15 10:41 | 49.80160 | 9.32638 | 8423 ft | 285 kts | 13° |
| 2026-04-15 10:41 | 49.82084 | 9.33324 | 8031 ft | 283 kts | 10° |
| 2026-04-15 10:41 | 49.84004 | 9.33310 | 7635 ft | 280 kts | 346° |
| 2026-04-15 10:42 | 49.85758 | 9.32089 | 7242 ft | 277 kts | 322° |
| 2026-04-15 10:42 | 49.87029 | 9.29901 | 6850 ft | 274 kts | 298° |
| 2026-04-15 10:42 | 49.87701 | 9.27160 | 6439 ft | 272 kts | 285° |
| 2026-04-15 10:42 | 49.88236 | 9.24341 | 6013 ft | 272 kts | 285° |
| 2026-04-15 10:43 | 49.88772 | 9.21528 | 5590 ft | 273 kts | 286° |
| 2026-04-15 10:43 | 49.89310 | 9.18706 | 5151 ft | 274 kts | 286° |
| 2026-04-15 10:43 | 49.89849 | 9.15871 | 4806 ft | 273 kts | 287° |
| 2026-04-15 10:43 | 49.90383 | 9.13066 | 4458 ft | 270 kts | 287° |
| 2026-04-15 10:44 | 49.90923 | 9.10235 | 4093 ft | 270 kts | 287° |
| 2026-04-15 10:44 | 49.91440 | 9.07512 | 3967 ft | 267 kts | 286° |
| 2026-04-15 10:44 | 49.91971 | 9.04708 | 3979 ft | 270 kts | 286° |
| 2026-04-15 10:44 | 49.92505 | 9.01895 | 3987 ft | 270 kts | 287° |
| 2026-04-15 10:45 | 49.93040 | 8.99097 | 3985 ft | 271 kts | 287° |
| 2026-04-15 10:45 | 49.93575 | 8.96308 | 3987 ft | 270 kts | 287° |
| 2026-04-15 10:45 | 49.94108 | 8.93524 | 3991 ft | 269 kts | 287° |
| 2026-04-15 10:45 | 49.94637 | 8.90748 | 3991 ft | 269 kts | 287° |
| 2026-04-15 10:46 | 49.95169 | 8.87958 | 3996 ft | 270 kts | 287° |
| 2026-04-15 10:46 | 49.95698 | 8.85176 | 3997 ft | 269 kts | 286° |
| 2026-04-15 10:46 | 49.96228 | 8.82378 | 4002 ft | 270 kts | 286° |
| 2026-04-15 10:46 | 49.96755 | 8.79594 | 4007 ft | 269 kts | 286° |
| 2026-04-15 10:47 | 49.97279 | 8.76810 | 4005 ft | 268 kts | 286° |
| 2026-04-15 10:47 | 49.97757 | 8.74002 | 4006 ft | 267 kts | 279° |
| 2026-04-15 10:47 | 49.97836 | 8.71118 | 4010 ft | 268 kts | 264° |
| 2026-04-15 10:47 | 49.97439 | 8.68295 | 4008 ft | 268 kts | 249° |
| 2026-04-15 10:48 | 49.96775 | 8.65590 | 4009 ft | 269 kts | 248° |
| 2026-04-15 10:48 | 49.96115 | 8.62870 | 4010 ft | 269 kts | 249° |
| 2026-04-15 10:48 | 49.95464 | 8.60169 | 4010 ft | 268 kts | 249° |
| 2026-04-15 10:48 | 49.94812 | 8.57457 | 4013 ft | 268 kts | 249° |
| 2026-04-15 10:49 | 49.94166 | 8.54766 | 4012 ft | 268 kts | 249° |
| 2026-04-15 10:49 | 49.93510 | 8.52038 | 4007 ft | 268 kts | 249° |
| 2026-04-15 10:49 | 49.92856 | 8.49321 | 4010 ft | 268 kts | 249° |
| 2026-04-15 10:49 | 49.92204 | 8.46606 | 4007 ft | 269 kts | 249° |
| 2026-04-15 10:50 | 49.91772 | 8.44805 | 3981 ft | 269 kts | 249° |
| 2026-04-15 10:50 | 49.91119 | 8.42089 | 3979 ft | 268 kts | 249° |
| 2026-04-15 10:50 | 49.90464 | 8.39379 | 3980 ft | 268 kts | 249° |
| 2026-04-15 10:50 | 49.89808 | 8.36676 | 3987 ft | 268 kts | 249° |
| 2026-04-15 10:51 | 49.89151 | 8.33976 | 3983 ft | 268 kts | 249° |
| 2026-04-15 10:51 | 49.88494 | 8.31270 | 3987 ft | 268 kts | 249° |
| 2026-04-15 10:51 | 49.87839 | 8.28567 | 3983 ft | 268 kts | 248° |
| 2026-04-15 10:51 | 49.87180 | 8.25853 | 3985 ft | 268 kts | 249° |
| 2026-04-15 10:52 | 49.86520 | 8.23152 | 3989 ft | 268 kts | 249° |
| 2026-04-15 10:52 | 49.85864 | 8.20476 | 3987 ft | 267 kts | 249° |
| 2026-04-15 10:52 | 49.85208 | 8.17790 | 3991 ft | 267 kts | 249° |
| 2026-04-15 10:52 | 49.84658 | 8.15027 | 3984 ft | 269 kts | 263° |
| 2026-04-15 10:53 | 49.84903 | 8.12160 | 3993 ft | 269 kts | 294° |
| 2026-04-15 10:53 | 49.85984 | 8.09881 | 3993 ft | 268 kts | 322° |
| 2026-04-15 10:53 | 49.87641 | 8.08560 | 3997 ft | 266 kts | 342° |
| 2026-04-15 10:53 | 49.89418 | 8.08149 | 3992 ft | 256 kts | 6° |
| 2026-04-15 10:54 | 49.91047 | 8.08900 | 3987 ft | 237 kts | 32° |
| 2026-04-15 10:54 | 49.92233 | 8.10536 | 3998 ft | 220 kts | 57° |
| 2026-04-15 10:54 | 49.92897 | 8.12615 | 4007 ft | 218 kts | 70° |
| 2026-04-15 10:54 | 49.93436 | 8.14855 | 4007 ft | 219 kts | 71° |
| 2026-04-15 10:55 | 49.93958 | 8.17034 | 4007 ft | 218 kts | 70° |
| 2026-04-15 10:55 | 49.94493 | 8.19235 | 4010 ft | 217 kts | 71° |
| 2026-04-15 10:55 | 49.95028 | 8.21434 | 4006 ft | 217 kts | 70° |
| 2026-04-15 10:55 | 49.95564 | 8.23634 | 4008 ft | 218 kts | 70° |
| 2026-04-15 10:56 | 49.96099 | 8.25836 | 3988 ft | 219 kts | 70° |
| 2026-04-15 10:56 | 49.96633 | 8.28036 | 3796 ft | 215 kts | 70° |
| 2026-04-15 10:56 | 49.97151 | 8.30173 | 3541 ft | 209 kts | 70° |
| 2026-04-15 10:56 | 49.97663 | 8.32284 | 3254 ft | 208 kts | 70° |
| 2026-04-15 10:57 | 49.98165 | 8.34362 | 2969 ft | 204 kts | 70° |
| 2026-04-15 10:57 | 49.99116 | 8.38299 | 2440 ft | 182 kts | 70° |
| 2026-04-15 10:57 | 49.99540 | 8.40056 | 2212 ft | 167 kts | 70° |
| 2026-04-15 10:58 | 49.99932 | 8.41678 | 1985 ft | 153 kts | 70° |
| 2026-04-15 10:58 | 50.00294 | 8.43183 | 1779 ft | 146 kts | 70° |
| 2026-04-15 10:58 | 50.00643 | 8.44633 | 1548 ft | 143 kts | 70° |
| 2026-04-15 10:58 | 50.00991 | 8.46081 | 1366 ft | 142 kts | 70° |
| 2026-04-15 10:59 | 50.01338 | 8.47520 | 1170 ft | 142 kts | 70° |
| 2026-04-15 10:59 | 50.01683 | 8.48959 | 987 ft | 142 kts | 70° |
| 2026-04-15 10:59 | 50.02030 | 8.50403 | 785 ft | 143 kts | 71° |
| 2026-04-15 10:59 | 50.02378 | 8.51850 | 594 ft | 144 kts | 70° |
| 2026-04-15 11:00 | 50.02727 | 8.53304 | 415 ft | 143 kts | 72° |
| 2026-04-15 11:00 | 50.03057 | 8.54700 | 337 ft | 122 kts | 71° |
| 2026-04-15 11:00 | 50.03297 | 8.55685 | 350 ft | 73 kts | 69° |
| 2026-04-15 11:00 | 50.03439 | 8.56285 | 355 ft | 51 kts | 70° |
| 2026-04-15 11:01 | 50.03549 | 8.56761 | 353 ft | 33 kts | 66° |
| 2026-04-15 11:01 | 50.03633 | 8.56977 | 355 ft | 23 kts | 57° |
| 2026-04-15 11:01 | 50.03741 | 8.57128 | 366 ft | 20 kts | 41° |
| 2026-04-15 11:01 | 50.03840 | 8.57261 | 364 ft | 10 kts | 39° |
| 2026-04-15 11:02 | 50.03880 | 8.57312 | 361 ft | 7 kts | 39° |
| 2026-04-15 11:02 | 50.03921 | 8.57363 | 366 ft | 7 kts | 39° |
| 2026-04-15 11:02 | 50.03956 | 8.57417 | 364 ft | 7 kts | 50° |
| 2026-04-15 11:02 | 50.03976 | 8.57491 | 367 ft | 8 kts | 70° |
| 2026-04-15 11:03 | 50.03999 | 8.57592 | 368 ft | 13 kts | 70° |
| 2026-04-15 11:03 | 50.04040 | 8.57764 | 372 ft | 19 kts | 69° |
| 2026-04-15 11:03 | 50.04089 | 8.57967 | 369 ft | 21 kts | 69° |
| 2026-04-15 11:03 | 50.04141 | 8.58184 | 373 ft | 22 kts | 70° |
| 2026-04-15 11:04 | 50.04196 | 8.58413 | 373 ft | 23 kts | 69° |
| 2026-04-15 11:04 | 50.04262 | 8.58606 | 372 ft | 16 kts | 28° |
| 2026-04-15 11:04 | 50.04373 | 8.58632 | 370 ft | 13 kts | 6° |
| 2026-04-15 11:04 | 50.04381 | 8.58633 | 370 ft | 0 kts | 6° |
| 2026-04-15 11:10 | 50.04382 | 8.58633 | 370 ft | 1 kts | 6° |
| 2026-04-15 11:10 | 50.04399 | 8.58636 | 370 ft | 4 kts | 7° |
| 2026-04-15 11:10 | 50.04437 | 8.58644 | 371 ft | 6 kts | 6° |
| 2026-04-15 11:11 | 50.04482 | 8.58650 | 371 ft | 9 kts | 3° |
| 2026-04-15 11:11 | 50.04550 | 8.58672 | 371 ft | 10 kts | 30° |
| 2026-04-15 11:11 | 50.04602 | 8.58736 | 371 ft | 9 kts | 46° |
| 2026-04-15 11:11 | 50.04645 | 8.58762 | 370 ft | 6 kts | 1° |
| 2026-04-15 11:12 | 50.04682 | 8.58764 | 370 ft | 5 kts | 4° |
| 2026-04-15 11:12 | 50.04742 | 8.58764 | 368 ft | 12 kts | 349° |
| 2026-04-15 11:12 | 50.04832 | 8.58715 | 364 ft | 14 kts | 340° |
| 2026-04-15 11:12 | 50.04924 | 8.58645 | 362 ft | 15 kts | 307° |
| 2026-04-15 11:13 | 50.04911 | 8.58507 | 361 ft | 12 kts | 249° |
| 2026-04-15 11:13 | 50.04884 | 8.58391 | 361 ft | 10 kts | 249° |
| 2026-04-15 11:13 | 50.04861 | 8.58295 | 360 ft | 9 kts | 250° |
| 2026-04-15 11:13 | 50.04842 | 8.58218 | 363 ft | 7 kts | 249° |
| 2026-04-15 11:14 | 50.04827 | 8.58154 | 361 ft | 6 kts | 249° |
| 2026-04-15 11:14 | 50.04810 | 8.58085 | 359 ft | 7 kts | 248° |
| 2026-04-15 11:14 | 50.04784 | 8.58069 | 358 ft | 3 kts | 175° |
| 2026-04-15 11:14 | 50.04777 | 8.58072 | 358 ft | 0 kts | 166° |
| 2026-04-15 11:15 | 50.04766 | 8.58077 | 365 ft | 2 kts | 162° |
| 2026-04-15 11:15 | 50.04746 | 8.58088 | 361 ft | 1 kts | 160° |
| 2026-04-15 11:15 | 50.04745 | 8.58088 | 361 ft | 0 kts | 159° |
| 2026-04-15 11:15 | 50.04733 | 8.58095 | 363 ft | 4 kts | 159° |
| 2026-04-15 11:16 | 50.04730 | 8.58097 | 362 ft | 0 kts | 159° |